createdAt,value
2022-10-01T00:01:01.301Z,9.67
2022-10-01T00:03:28.898Z,9.67
2022-10-01T00:06:09.032Z,9.66
2022-10-01T00:08:37.273Z,9.67
2022-10-01T00:11:24.153Z,9.67
2022-10-01T00:13:51.695Z,9.68
2022-10-01T00:16:21.711Z,9.69
2022-10-01T00:18:49.294Z,9.68
2022-10-01T00:21:20.339Z,9.68
2022-10-01T00:23:47.292Z,9.69
2022-10-01T00:26:20.929Z,9.69
2022-10-01T00:28:49.203Z,9.72
2022-10-01T00:31:16.456Z,9.72
2022-10-01T00:33:42.989Z,9.71
2022-10-01T00:36:10.842Z,9.72
2022-10-01T00:38:50.937Z,9.74
2022-10-01T00:41:18.680Z,9.78
2022-10-01T00:43:49.875Z,9.78
2022-10-01T00:46:25.137Z,9.79
2022-10-01T00:49:17.708Z,9.81
2022-10-01T00:51:57.228Z,9.80
2022-10-01T00:54:32.163Z,9.84
2022-10-01T00:57:00.660Z,9.86
2022-10-01T00:59:29.075Z,9.88
2022-10-01T01:01:55.576Z,9.90
2022-10-01T01:04:22.026Z,9.90
2022-10-01T01:06:57.685Z,9.90
2022-10-01T01:09:30.060Z,9.94
2022-10-01T01:12:18.160Z,9.94
2022-10-01T01:15:03.274Z,9.96
2022-10-01T01:17:40.363Z,10.04
2022-10-01T01:20:09.631Z,10.09
2022-10-01T01:22:41.014Z,10.08
2022-10-01T01:25:20.246Z,10.07
2022-10-01T01:27:56.592Z,10.07
2022-10-01T01:30:22.998Z,10.11
2022-10-01T01:32:57.277Z,10.10
2022-10-01T01:35:32.179Z,10.08
2022-10-01T01:38:08.465Z,10.08
2022-10-01T01:40:37.771Z,10.10
2022-10-01T01:43:09.427Z,10.10
2022-10-01T01:45:39.987Z,10.11
2022-10-01T01:48:09.896Z,10.12
2022-10-01T01:50:43.645Z,10.12
2022-10-01T01:53:11.325Z,10.11
2022-10-01T01:55:39.124Z,10.11
2022-10-01T01:58:05.880Z,10.11
2022-10-01T02:00:32.253Z,10.12
2022-10-01T02:02:59.119Z,10.13
2022-10-01T02:05:38.893Z,10.13
2022-10-01T02:08:36.888Z,10.14
2022-10-01T02:11:15.827Z,10.17
2022-10-01T02:14:01.154Z,10.20
2022-10-01T02:16:35.025Z,10.22
2022-10-01T02:19:10.541Z,10.25
2022-10-01T02:21:44.284Z,10.31
2022-10-01T02:25:02.003Z,10.41
2022-10-01T02:27:40.401Z,10.45
2022-10-01T02:30:09.670Z,10.50
2022-10-01T02:32:39.487Z,10.57
2022-10-01T02:35:09.594Z,10.63
2022-10-01T02:37:38.705Z,10.71
2022-10-01T02:40:09.747Z,10.78
2022-10-01T02:42:37.425Z,10.80
2022-10-01T02:45:05.490Z,10.86
2022-10-01T02:47:47.262Z,10.89
2022-10-01T02:50:14.857Z,10.91
2022-10-01T02:53:13.578Z,11.17
2022-10-01T02:55:42.172Z,11.82
2022-10-01T02:58:08.788Z,12.17
2022-10-01T03:00:35.679Z,12.32
2022-10-01T03:03:02.090Z,12.48
2022-10-01T03:05:28.462Z,12.56
2022-10-01T03:07:54.834Z,12.56
2022-10-01T03:10:21.214Z,12.54
2022-10-01T03:12:47.581Z,12.56
2022-10-01T03:15:16.444Z,12.52
2022-10-01T03:17:42.970Z,12.49
2022-10-01T03:20:10.821Z,12.55
2022-10-01T03:22:37.268Z,12.47
2022-10-01T03:25:04.316Z,12.37
2022-10-01T03:27:31.009Z,12.44
2022-10-01T03:29:57.381Z,12.41
2022-10-01T03:32:23.750Z,12.43
2022-10-01T03:34:50.163Z,12.52
2022-10-01T03:37:16.596Z,12.49
2022-10-01T03:39:43.071Z,12.51
2022-10-01T03:42:09.426Z,12.60
2022-10-01T03:44:35.841Z,12.57
2022-10-01T03:47:02.200Z,12.57
2022-10-01T03:49:28.927Z,12.54
2022-10-01T03:51:55.329Z,12.61
2022-10-01T03:54:21.713Z,12.51
2022-10-01T03:56:48.824Z,12.51
2022-10-01T03:59:15.191Z,12.47
2022-10-01T04:01:41.656Z,12.40
2022-10-01T04:04:08.127Z,12.33
2022-10-01T04:06:34.505Z,12.27
2022-10-01T04:09:01.027Z,12.34
2022-10-01T04:11:27.878Z,12.25
2022-10-01T04:13:54.267Z,12.32
2022-10-01T04:16:20.731Z,12.33
2022-10-01T04:18:47.247Z,12.41
2022-10-01T04:21:15.240Z,12.45
2022-10-01T04:23:41.999Z,12.49
2022-10-01T04:26:09.062Z,12.57
2022-10-01T04:28:35.499Z,12.52
2022-10-01T04:31:20.479Z,12.62
2022-10-01T04:33:47.070Z,12.66
2022-10-01T04:36:13.893Z,12.63
2022-10-01T04:38:40.357Z,12.74
2022-10-01T04:41:07.165Z,12.81
2022-10-01T04:43:33.518Z,12.78
2022-10-01T04:45:59.894Z,12.62
2022-10-01T04:48:26.337Z,12.65
2022-10-01T04:50:52.721Z,12.64
2022-10-01T04:53:19.158Z,12.62
2022-10-01T04:55:46.579Z,12.45
2022-10-01T04:58:13.088Z,12.48
2022-10-01T05:00:39.578Z,12.46
2022-10-01T05:03:05.993Z,12.43
2022-10-01T05:05:34.792Z,12.35
2022-10-01T05:08:01.907Z,12.30
2022-10-01T05:10:28.343Z,12.34
2022-10-01T05:12:54.784Z,12.27
2022-10-01T05:15:21.225Z,12.10
2022-10-01T05:17:47.936Z,12.20
2022-10-01T05:20:20.516Z,12.10
2022-10-01T05:22:47.667Z,12.14
2022-10-01T05:25:14.556Z,12.26
2022-10-01T05:27:40.950Z,12.34
2022-10-01T05:30:12.025Z,12.35
2022-10-01T05:32:38.831Z,12.38
2022-10-01T05:35:07.154Z,12.46
2022-10-01T05:37:34.234Z,12.49
2022-10-01T05:40:01.636Z,12.53
2022-10-01T05:42:28.049Z,12.58
2022-10-01T05:44:54.413Z,12.48
2022-10-01T05:47:21.450Z,12.48
2022-10-01T05:49:47.836Z,12.51
2022-10-01T05:52:15.604Z,12.60
2022-10-01T05:54:42.020Z,12.52
2022-10-01T05:57:09.388Z,12.48
2022-10-01T05:59:36.080Z,12.46
2022-10-01T06:02:04.165Z,12.36
2022-10-01T06:04:30.730Z,12.36
2022-10-01T06:06:57.150Z,12.38
2022-10-01T06:09:23.619Z,12.42
2022-10-01T06:11:50.170Z,12.57
2022-10-01T06:14:17.268Z,12.77
2022-10-01T06:16:43.730Z,12.99
2022-10-01T06:19:10.482Z,12.98
2022-10-01T06:21:37.242Z,12.94
2022-10-01T06:24:04.182Z,12.67
2022-10-01T06:26:31.172Z,12.23
2022-10-01T06:28:57.687Z,11.87
2022-10-01T06:31:25.037Z,11.52
2022-10-01T06:33:51.502Z,11.26
2022-10-01T06:36:17.921Z,11.10
2022-10-01T06:38:44.994Z,11.01
2022-10-01T06:41:12.041Z,11.12
2022-10-01T06:43:38.916Z,11.22
2022-10-01T06:46:05.922Z,11.15
2022-10-01T06:48:33.329Z,11.26
2022-10-01T06:50:59.837Z,11.43
2022-10-01T06:53:27.713Z,11.62
2022-10-01T06:55:54.395Z,11.73
2022-10-01T06:58:22.922Z,11.94
2022-10-01T07:00:49.993Z,11.97
2022-10-01T07:03:21.517Z,12.06
2022-10-01T07:05:50.348Z,12.25
2022-10-01T07:08:17.647Z,12.51
2022-10-01T07:10:45.494Z,12.91
2022-10-01T07:13:17.672Z,13.26
2022-10-01T07:15:45.101Z,13.47
2022-10-01T07:18:12.038Z,13.69
2022-10-01T07:20:42.159Z,13.59
2022-10-01T07:23:12.141Z,13.64
2022-10-01T07:25:39.978Z,13.45
2022-10-01T07:28:08.364Z,13.35
2022-10-01T07:30:35.838Z,13.27
2022-10-01T07:33:02.234Z,13.15
2022-10-01T07:35:29.565Z,13.04
2022-10-01T07:37:55.925Z,13.04
2022-10-01T07:40:22.672Z,13.00
2022-10-01T07:42:54.591Z,13.31
2022-10-01T07:45:25.265Z,13.61
2022-10-01T07:47:56.645Z,13.74
2022-10-01T07:50:23.743Z,13.54
2022-10-01T07:52:54.294Z,13.74
2022-10-01T07:55:21.182Z,13.95
2022-10-01T07:57:52.229Z,14.06
2022-10-01T08:00:19.553Z,14.02
2022-10-01T08:02:50.721Z,13.82
2022-10-01T08:05:22.474Z,13.97
2022-10-01T08:07:49.964Z,13.95
2022-10-01T08:10:18.540Z,13.85
2022-10-01T08:12:45.812Z,13.79
2022-10-01T08:15:15.219Z,13.83
2022-10-01T08:17:42.152Z,13.90
2022-10-01T08:20:11.779Z,14.06
2022-10-01T08:22:41.841Z,14.13
2022-10-01T08:25:09.368Z,14.35
2022-10-01T08:27:36.069Z,14.39
2022-10-01T08:30:02.752Z,14.62
2022-10-01T08:32:30.107Z,14.60
2022-10-01T08:34:58.933Z,14.61
2022-10-01T08:37:27.138Z,14.87
2022-10-01T08:39:54.643Z,14.92
2022-10-01T08:42:53.910Z,15.02
2022-10-01T08:45:25.894Z,14.67
2022-10-01T08:48:02.176Z,14.20
2022-10-01T08:50:52.890Z,14.29
2022-10-01T08:53:48.185Z,14.38
2022-10-01T08:56:30.630Z,14.44
2022-10-01T08:58:59.571Z,14.33
2022-10-01T09:01:29.958Z,14.52
2022-10-01T09:03:56.875Z,14.72
2022-10-01T09:06:25.503Z,14.87
2022-10-01T09:09:03.164Z,15.00
2022-10-01T09:11:47.603Z,14.98
2022-10-01T09:14:30.193Z,15.19
2022-10-01T09:17:24.378Z,14.93
2022-10-01T09:19:56.881Z,14.77
2022-10-01T09:22:28.261Z,14.49
2022-10-01T09:25:25.347Z,14.61
2022-10-01T09:28:00.513Z,14.79
2022-10-01T09:30:29.711Z,15.20
2022-10-01T09:33:02.344Z,15.53
2022-10-01T09:35:44.193Z,15.90
2022-10-01T09:38:22.485Z,15.03
2022-10-01T09:40:59.064Z,14.15
2022-10-01T09:43:38.092Z,13.73
2022-10-01T09:46:15.326Z,13.46
2022-10-01T09:48:55.780Z,13.39
2022-10-01T09:51:41.288Z,13.57
2022-10-01T09:54:46.427Z,13.91
2022-10-01T09:57:20.727Z,14.23
2022-10-01T10:00:01.474Z,14.36
2022-10-01T10:02:32.904Z,14.28
2022-10-01T10:05:07.269Z,14.41
2022-10-01T10:07:35.114Z,14.86
2022-10-01T10:10:10.560Z,14.94
2022-10-01T10:12:36.996Z,15.00
2022-10-01T10:15:09.901Z,15.14
2022-10-01T10:17:37.976Z,15.40
2022-10-01T10:20:11.844Z,15.54
2022-10-01T10:22:38.492Z,15.81
2022-10-01T10:25:19.829Z,15.86
2022-10-01T10:27:55.573Z,15.77
2022-10-01T10:30:24.581Z,15.84
2022-10-01T10:32:52.527Z,15.71
2022-10-01T10:35:26.068Z,15.37
2022-10-01T10:37:54.748Z,15.45
2022-10-01T10:40:29.470Z,15.47
2022-10-01T10:42:58.618Z,15.24
2022-10-01T10:45:33.109Z,15.23
2022-10-01T10:48:02.628Z,15.65
2022-10-01T10:50:36.546Z,15.82
2022-10-01T10:54:00.610Z,15.55
2022-10-01T10:56:27.059Z,15.80
2022-10-01T10:58:53.985Z,15.84
2022-10-01T11:01:29.400Z,16.08
2022-10-01T11:03:58.461Z,16.27
2022-10-01T11:06:25.754Z,16.48
2022-10-01T11:09:10.567Z,16.91
2022-10-01T11:11:45.692Z,17.12
2022-10-01T11:14:35.283Z,17.25
2022-10-01T11:17:23.263Z,16.96
2022-10-01T11:19:57.070Z,16.38
2022-10-01T11:22:47.701Z,16.69
2022-10-01T11:25:33.645Z,16.48
2022-10-01T11:28:26.754Z,16.52
2022-10-01T11:31:01.278Z,16.65
2022-10-01T11:33:46.335Z,16.52
2022-10-01T11:36:55.256Z,16.45
2022-10-01T11:39:25.158Z,16.40
2022-10-01T11:42:06.688Z,16.40
2022-10-01T11:44:39.679Z,16.25
2022-10-01T11:47:19.573Z,15.71
2022-10-01T11:50:07.538Z,15.60
2022-10-01T11:53:11.707Z,16.39
2022-10-01T11:56:11.946Z,16.74
2022-10-01T11:58:57.229Z,16.71
2022-10-01T12:01:23.621Z,16.64
2022-10-01T12:03:52.635Z,16.64
2022-10-01T12:06:33.000Z,16.77
2022-10-01T12:09:09.366Z,16.94
2022-10-01T12:12:08.380Z,17.05
2022-10-01T12:15:01.702Z,17.17
2022-10-01T12:17:44.110Z,17.75
2022-10-01T12:20:24.918Z,17.78
2022-10-01T12:22:53.740Z,17.77
2022-10-01T12:25:25.608Z,18.21
2022-10-01T12:28:21.402Z,17.66
2022-10-01T12:30:58.090Z,17.12
2022-10-01T12:33:42.610Z,16.00
2022-10-01T12:36:25.105Z,15.95
2022-10-01T12:39:19.631Z,17.25
2022-10-01T12:41:50.381Z,18.42
2022-10-01T12:44:49.143Z,17.85
2022-10-01T12:47:24.383Z,18.23
2022-10-01T12:50:04.431Z,18.21
2022-10-01T12:52:39.473Z,18.23
2022-10-01T12:55:19.393Z,19.05
2022-10-01T12:57:58.895Z,19.61
2022-10-01T13:00:27.274Z,18.74
2022-10-01T13:03:15.428Z,18.11
2022-10-01T13:06:00.247Z,16.89
2022-10-01T13:08:43.394Z,17.12
2022-10-01T13:11:12.799Z,17.07
2022-10-01T13:13:40.126Z,17.42
2022-10-01T13:16:48.532Z,15.22
2022-10-01T13:19:40.108Z,14.23
2022-10-01T13:22:45.116Z,14.66
2022-10-01T13:25:41.993Z,15.15
2022-10-01T13:28:13.071Z,15.04
2022-10-01T13:31:00.438Z,14.55
2022-10-01T13:33:29.676Z,15.87
2022-10-01T13:35:59.442Z,15.03
2022-10-01T13:38:40.673Z,15.00
2022-10-01T13:41:29.658Z,15.45
2022-10-01T13:44:03.602Z,16.35
2022-10-01T13:46:33.118Z,15.63
2022-10-01T13:49:07.408Z,15.46
2022-10-01T13:51:36.267Z,17.64
2022-10-01T13:54:06.859Z,16.68
2022-10-01T13:56:37.237Z,15.87
2022-10-01T13:59:20.636Z,15.41
2022-10-01T14:01:47.064Z,15.05
2022-10-01T14:04:19.359Z,14.85
2022-10-01T14:06:53.577Z,14.79
2022-10-01T14:09:25.924Z,16.49
2022-10-01T14:12:19.793Z,16.03
2022-10-01T14:15:11.146Z,15.23
2022-10-01T14:17:37.846Z,16.45
2022-10-01T14:20:05.529Z,16.38
2022-10-01T14:22:54.841Z,15.64
2022-10-01T14:25:44.117Z,16.60
2022-10-01T14:28:17.531Z,16.28
2022-10-01T14:31:12.891Z,17.03
2022-10-01T14:34:14.619Z,19.24
2022-10-01T14:36:52.216Z,19.56
2022-10-01T14:39:29.369Z,18.15
2022-10-01T14:41:57.965Z,16.62
2022-10-01T14:44:27.761Z,16.26
2022-10-01T14:46:56.488Z,16.30
2022-10-01T14:49:28.479Z,16.11
2022-10-01T14:52:00.527Z,16.01
2022-10-01T14:54:28.371Z,15.75
2022-10-01T14:56:55.545Z,15.76
2022-10-01T14:59:42.199Z,15.56
2022-10-01T15:02:18.969Z,15.21
2022-10-01T15:04:50.564Z,15.07
2022-10-01T15:07:18.352Z,14.93
2022-10-01T15:09:46.010Z,14.84
2022-10-01T15:12:15.037Z,15.00
2022-10-01T15:14:43.558Z,15.12
2022-10-01T15:17:18.839Z,15.22
2022-10-01T15:19:52.091Z,15.00
2022-10-01T15:22:23.056Z,14.92
2022-10-01T15:24:51.821Z,14.86
2022-10-01T15:27:20.787Z,14.84
2022-10-01T15:29:56.101Z,14.76
2022-10-01T15:32:25.170Z,14.76
2022-10-01T15:35:01.042Z,14.74
2022-10-01T15:37:33.120Z,14.74
2022-10-01T15:40:00.997Z,14.88
2022-10-01T15:42:33.573Z,15.05
2022-10-01T15:45:09.143Z,15.06
2022-10-01T15:47:52.149Z,15.07
2022-10-01T15:50:21.935Z,15.04
2022-10-01T15:53:01.845Z,15.05
2022-10-01T15:55:50.618Z,15.04
2022-10-01T15:58:21.589Z,14.98
2022-10-01T16:00:48.632Z,14.85
2022-10-01T16:03:25.388Z,14.76
2022-10-01T16:05:56.790Z,14.76
2022-10-01T16:08:34.450Z,14.73
2022-10-01T16:11:12.776Z,14.49
2022-10-01T16:13:41.778Z,14.36
2022-10-01T16:16:11.020Z,14.30
2022-10-01T16:18:37.522Z,14.38
2022-10-01T16:21:06.038Z,14.36
2022-10-01T16:23:36.243Z,14.19
2022-10-01T16:26:05.745Z,14.15
2022-10-01T16:28:35.052Z,14.17
2022-10-01T16:31:03.945Z,14.19
2022-10-01T16:33:30.475Z,14.17
2022-10-01T16:36:09.454Z,14.20
2022-10-01T16:38:35.868Z,14.15
2022-10-01T16:41:03.967Z,14.05
2022-10-01T16:43:31.157Z,14.03
2022-10-01T16:45:59.061Z,14.01
2022-10-01T16:48:25.466Z,13.99
2022-10-01T16:50:53.692Z,13.97
2022-10-01T16:53:20.237Z,13.93
2022-10-01T16:55:47.221Z,13.84
2022-10-01T16:58:13.749Z,13.80
2022-10-01T17:00:40.528Z,13.73
2022-10-01T17:03:12.371Z,13.58
2022-10-01T17:05:39.195Z,13.59
2022-10-01T17:08:11.190Z,13.53
2022-10-01T17:10:40.825Z,13.50
2022-10-01T17:13:07.526Z,13.45
2022-10-01T17:15:34.041Z,13.47
2022-10-01T17:18:01.105Z,13.46
2022-10-01T17:20:29.522Z,13.39
2022-10-01T17:22:57.720Z,13.36
2022-10-01T17:25:30.836Z,13.33
2022-10-01T17:27:58.219Z,13.29
2022-10-01T17:30:24.665Z,13.30
2022-10-01T17:32:51.975Z,13.24
2022-10-01T17:35:18.368Z,13.13
2022-10-01T17:37:44.782Z,13.20
2022-10-01T17:40:11.214Z,13.24
2022-10-01T17:42:37.767Z,13.20
2022-10-01T17:45:08.270Z,13.24
2022-10-01T17:47:35.119Z,13.14
2022-10-01T17:50:02.838Z,13.07
2022-10-01T17:52:29.864Z,13.06
2022-10-01T17:54:56.315Z,13.05
2022-10-01T17:57:22.778Z,13.08
2022-10-01T17:59:49.152Z,13.03
2022-10-01T18:02:39.935Z,12.91
2022-10-01T18:05:04.069Z,12.79
2022-10-01T18:07:30.458Z,12.73
2022-10-01T18:09:56.793Z,12.78
2022-10-01T18:12:23.174Z,12.75
2022-10-01T18:14:49.786Z,12.77
2022-10-01T18:17:16.252Z,12.79
2022-10-01T18:19:57.858Z,12.91
2022-10-01T18:22:24.403Z,12.85
2022-10-01T18:24:50.838Z,12.89
2022-10-01T18:27:17.547Z,12.93
2022-10-01T18:29:43.946Z,13.13
2022-10-01T18:32:19.214Z,13.33
2022-10-01T18:35:00.461Z,13.38
2022-10-01T18:37:46.389Z,13.38
2022-10-01T18:40:17.558Z,13.30
2022-10-01T18:43:02.116Z,13.48
2022-10-01T18:45:36.948Z,13.58
2022-10-01T18:48:37.078Z,13.70
2022-10-01T18:51:18.446Z,13.79
2022-10-01T18:53:50.342Z,13.87
2022-10-01T18:56:37.111Z,13.89
2022-10-01T18:59:14.760Z,14.07
2022-10-01T19:02:22.140Z,14.13
2022-10-01T19:05:10.508Z,14.09
2022-10-01T19:08:04.318Z,14.10
2022-10-01T19:10:58.329Z,14.05
2022-10-01T19:13:33.233Z,14.13
2022-10-01T19:16:26.598Z,14.14
2022-10-01T19:19:17.579Z,14.14
2022-10-01T19:22:37.887Z,14.05
2022-10-01T19:25:28.504Z,13.99
2022-10-01T19:28:23.501Z,13.95
2022-10-01T19:31:27.446Z,14.03
2022-10-01T19:34:04.804Z,13.93
2022-10-01T19:36:37.294Z,13.97
2022-10-01T19:39:10.751Z,13.98
2022-10-01T19:41:43.010Z,13.82
2022-10-01T19:44:16.861Z,13.95
2022-10-01T19:46:45.784Z,14.00
2022-10-01T19:49:25.350Z,13.90
2022-10-01T19:51:57.302Z,13.80
2022-10-01T19:54:30.546Z,13.84
2022-10-01T19:57:09.721Z,13.98
2022-10-01T19:59:36.093Z,13.87
2022-10-01T20:02:27.976Z,14.03
2022-10-01T20:05:03.588Z,14.04
2022-10-01T20:07:45.534Z,14.07
2022-10-01T20:10:23.639Z,14.03
2022-10-01T20:13:07.012Z,13.97
2022-10-01T20:15:52.598Z,14.00
2022-10-01T20:18:58.576Z,14.09
2022-10-01T20:21:54.175Z,14.26
2022-10-01T20:24:35.563Z,14.26
2022-10-01T20:27:27.779Z,14.33
2022-10-01T20:30:04.854Z,14.18
2022-10-01T20:32:40.717Z,14.32
2022-10-01T20:35:12.001Z,14.08
2022-10-01T20:38:00.333Z,14.14
2022-10-01T20:40:32.877Z,14.11
2022-10-01T20:43:05.740Z,14.12
2022-10-01T20:45:35.340Z,14.11
2022-10-01T20:48:10.212Z,14.04
2022-10-01T20:50:46.200Z,14.12
2022-10-01T20:53:30.891Z,14.06
2022-10-01T20:56:11.420Z,14.01
2022-10-01T20:58:44.395Z,14.03
2022-10-01T21:01:20.312Z,13.95
2022-10-01T21:03:51.710Z,13.80
2022-10-01T21:06:33.282Z,13.81
2022-10-01T21:09:29.447Z,13.68
2022-10-01T21:12:06.079Z,13.63
2022-10-01T21:14:55.575Z,13.85
2022-10-01T21:17:30.994Z,13.83
2022-10-01T21:20:20.208Z,13.84
2022-10-01T21:23:12.287Z,13.99
2022-10-01T21:26:15.163Z,13.94
2022-10-01T21:29:05.150Z,13.85
2022-10-01T21:31:37.770Z,13.92
2022-10-01T21:34:33.626Z,14.02
2022-10-01T21:37:30.060Z,14.10
2022-10-01T21:40:22.046Z,14.16
2022-10-01T21:43:05.869Z,14.26
2022-10-01T21:45:54.002Z,14.29
2022-10-01T21:49:01.806Z,14.23
2022-10-01T21:52:15.496Z,14.23
2022-10-01T21:54:57.125Z,14.21
2022-10-01T21:57:45.578Z,14.20
2022-10-01T22:00:21.653Z,14.21
2022-10-01T22:03:03.360Z,14.13
2022-10-01T22:05:44.626Z,14.25
2022-10-01T22:08:21.780Z,14.24
2022-10-01T22:11:02.472Z,14.25
2022-10-01T22:13:36.705Z,14.21
2022-10-01T22:16:09.504Z,14.21
2022-10-01T22:18:49.970Z,14.13
2022-10-01T22:21:32.504Z,14.09
2022-10-01T22:24:07.324Z,14.18
2022-10-01T22:26:38.121Z,14.27
2022-10-01T22:29:10.404Z,14.23
2022-10-01T22:31:39.422Z,14.20
2022-10-01T22:34:14.513Z,14.24
2022-10-01T22:36:48.892Z,14.23
2022-10-01T22:39:25.403Z,14.20
2022-10-01T22:42:16.110Z,14.21
2022-10-01T22:44:43.023Z,14.26
2022-10-01T22:47:42.646Z,14.38
2022-10-01T22:50:47.486Z,14.45
2022-10-01T22:53:42.951Z,14.36
2022-10-01T22:56:17.651Z,14.35
2022-10-01T22:58:59.239Z,14.43
2022-10-01T23:01:57.317Z,14.43
2022-10-01T23:04:32.195Z,14.40
2022-10-01T23:07:15.728Z,14.42
2022-10-01T23:10:20.299Z,14.48
2022-10-01T23:13:05.811Z,14.43
2022-10-01T23:15:46.393Z,14.45
2022-10-01T23:18:35.155Z,14.50
2022-10-01T23:21:29.149Z,14.43
2022-10-01T23:24:18.000Z,14.41
2022-10-01T23:26:58.261Z,14.28
2022-10-01T23:29:48.905Z,14.30
2022-10-01T23:32:27.566Z,14.37
2022-10-01T23:35:13.156Z,14.27
2022-10-01T23:38:04.940Z,14.16
2022-10-01T23:40:36.516Z,14.09
2022-10-01T23:43:21.900Z,14.18
2022-10-01T23:45:54.897Z,14.14
2022-10-01T23:48:27.939Z,14.15
2022-10-01T23:51:02.721Z,14.09
2022-10-01T23:54:07.040Z,14.03
2022-10-01T23:56:50.077Z,14.05
2022-10-01T23:59:33.411Z,14.05
